Goodman, Mississippi
Current Conditions -  °F | °C
As of 12:53 AM on Saturday 20 Dec 2014 (Local Time) from KGWO Reporting Station
Overcast Overcast  
Wind Chill:   Ceiling: 7000
Heat Index:   Visibility: 10mi
Dew Point:   Wind: 7mph
Humidity: 89%   Direction: 20°NNE
Pressure: 30.2"   Gusts: NA
Location:  32.97°N, 89.91°W
Report Text: KGWO 200653Z AUTO 02006KT 10SM OVC070 06/04 A3020 RMK AO2 SLP226 T00610044
Loading
Personal Weather Stations






























Interactive Weather Map New forecast layout! Learn more

10-Day Weather Forecast

Advertisements
Track Severe Weather on mobile